sensor_id;sensor_type;location;lat;lon;timestamp;temperature;humidity
40660;DHT22;26753;45.544;9.232;2023-02-19T00:05:37;11.30;99.90
40660;DHT22;26753;45.544;9.232;2023-02-19T00:11:43;12.20;99.90
40660;DHT22;26753;45.544;9.232;2023-02-19T00:14:29;11.00;99.90
40660;DHT22;26753;45.544;9.232;2023-02-19T00:17:07;12.60;99.90
40660;DHT22;26753;45.544;9.232;2023-02-19T00:19:35;10.10;99.90
40660;DHT22;26753;45.544;9.232;2023-02-19T00:24:40;10.60;99.90
40660;DHT22;26753;45.544;9.232;2023-02-19T00:30:45;12.50;99.90
40660;DHT22;26753;45.544;9.232;2023-02-19T00:33:09;12.60;99.90
40660;DHT22;26753;45.544;9.232;2023-02-19T00:35:38;11.20;99.90
40660;DHT22;26753;45.544;9.232;2023-02-19T00:38:14;11.80;99.90
40660;DHT22;26753;45.544;9.232;2023-02-19T00:40:46;11.90;99.90
40660;DHT22;26753;45.544;9.232;2023-02-19T00:43:27;11.50;99.90
40660;DHT22;26753;45.544;9.232;2023-02-19T00:52:31;11.90;99.90
40660;DHT22;26753;45.544;9.232;2023-02-19T00:55:00;10.80;99.90
40660;DHT22;26753;45.544;9.232;2023-02-19T01:00:22;13.00;99.90
40660;DHT22;26753;45.544;9.232;2023-02-19T01:03:07;12.60;99.90
40660;DHT22;26753;45.544;9.232;2023-02-19T01:05:35;11.10;99.90
40660;DHT22;26753;45.544;9.232;2023-02-19T01:11:27;12.80;99.90
40660;DHT22;26753;45.544;9.232;2023-02-19T01:13:57;9.10;99.90
40660;DHT22;26753;45.544;9.232;2023-02-19T01:16:23;12.50;99.90
40660;DHT22;26753;45.544;9.232;2023-02-19T01:18:52;11.30;99.90
40660;DHT22;26753;45.544;9.232;2023-02-19T01:21:23;10.70;99.90
40660;DHT22;26753;45.544;9.232;2023-02-19T01:23:50;10.50;99.90
40660;DHT22;26753;45.544;9.232;2023-02-19T01:26:23;10.70;99.90
40660;DHT22;26753;45.544;9.232;2023-02-19T01:28:49;10.40;99.90
40660;DHT22;26753;45.544;9.232;2023-02-19T01:31:16;9.70;99.90
40660;DHT22;26753;45.544;9.232;2023-02-19T01:33:52;9.00;99.90
40660;DHT22;26753;45.544;9.232;2023-02-19T01:39:08;10.10;99.90
40660;DHT22;26753;45.544;9.232;2023-02-19T01:41:36;10.60;99.90
40660;DHT22;26753;45.544;9.232;2023-02-19T01:50:00;11.20;99.90
40660;DHT22;26753;45.544;9.232;2023-02-19T02:26:29;9.40;99.90
40660;DHT22;26753;45.544;9.232;2023-02-19T02:28:54;11.40;99.90
40660;DHT22;26753;45.544;9.232;2023-02-19T02:31:28;9.60;99.90
40660;DHT22;26753;45.544;9.232;2023-02-19T02:36:51;9.60;99.90
40660;DHT22;26753;45.544;9.232;2023-02-19T02:42:25;12.90;99.90
40660;DHT22;26753;45.544;9.232;2023-02-19T02:44:56;10.10;99.90
40660;DHT22;26753;45.544;9.232;2023-02-19T02:47:51;10.30;99.90
40660;DHT22;26753;45.544;9.232;2023-02-19T02:50:19;9.10;99.90
40660;DHT22;26753;45.544;9.232;2023-02-19T02:52:48;10.50;99.90
40660;DHT22;26753;45.544;9.232;2023-02-19T02:55:35;11.80;99.90
40660;DHT22;26753;45.544;9.232;2023-02-19T02:58:03;9.60;99.90
40660;DHT22;26753;45.544;9.232;2023-02-19T03:00:29;11.70;99.90
40660;DHT22;26753;45.544;9.232;2023-02-19T03:03:16;10.50;99.90
40660;DHT22;26753;45.544;9.232;2023-02-19T03:05:46;10.60;99.90
40660;DHT22;26753;45.544;9.232;2023-02-19T03:08:19;10.20;99.90
40660;DHT22;26753;45.544;9.232;2023-02-19T03:10:49;11.90;99.90
40660;DHT22;26753;45.544;9.232;2023-02-19T03:13:17;10.70;99.90
40660;DHT22;26753;45.544;9.232;2023-02-19T03:16:23;10.70;99.90
40660;DHT22;26753;45.544;9.232;2023-02-19T03:19:10;8.70;99.90
40660;DHT22;26753;45.544;9.232;2023-02-19T03:21:44;10.60;99.90
40660;DHT22;26753;45.544;9.232;2023-02-19T03:24:11;8.80;99.90
40660;DHT22;26753;45.544;9.232;2023-02-19T03:27:00;12.50;99.90
40660;DHT22;26753;45.544;9.232;2023-02-19T03:29:48;9.80;99.90
40660;DHT22;26753;45.544;9.232;2023-02-19T03:35:22;9.30;99.90
40660;DHT22;26753;45.544;9.232;2023-02-19T03:37:49;9.30;99.90
40660;DHT22;26753;45.544;9.232;2023-02-19T03:40:20;9.60;99.90
40660;DHT22;26753;45.544;9.232;2023-02-19T03:42:57;9.40;99.90
40660;DHT22;26753;45.544;9.232;2023-02-19T03:45:52;10.60;99.90
40660;DHT22;26753;45.544;9.232;2023-02-19T03:48:32;11.60;99.90
40660;DHT22;26753;45.544;9.232;2023-02-19T03:51:07;9.30;99.90
40660;DHT22;26753;45.544;9.232;2023-02-19T03:56:33;11.00;99.90
40660;DHT22;26753;45.544;9.232;2023-02-19T04:04:30;9.00;99.90
40660;DHT22;26753;45.544;9.232;2023-02-19T04:10:13;9.70;99.90
40660;DHT22;26753;45.544;9.232;2023-02-19T04:28:41;10.60;99.90
40660;DHT22;26753;45.544;9.232;2023-02-19T04:34:41;9.20;99.90
40660;DHT22;26753;45.544;9.232;2023-02-19T04:40:44;9.40;99.90
40660;DHT22;26753;45.544;9.232;2023-02-19T04:45:50;8.20;99.90
40660;DHT22;26753;45.544;9.232;2023-02-19T04:48:16;7.80;99.90
40660;DHT22;26753;45.544;9.232;2023-02-19T04:53:13;8.20;99.90
40660;DHT22;26753;45.544;9.232;2023-02-19T04:55:42;6.90;99.90
40660;DHT22;26753;45.544;9.232;2023-02-19T04:58:07;9.60;99.90
40660;DHT22;26753;45.544;9.232;2023-02-19T05:06:35;7.40;99.90
40660;DHT22;26753;45.544;9.232;2023-02-19T05:09:01;8.00;99.90
40660;DHT22;26753;45.544;9.232;2023-02-19T05:11:27;10.30;99.90
40660;DHT22;26753;45.544;9.232;2023-02-19T05:13:53;10.40;99.90
40660;DHT22;26753;45.544;9.232;2023-02-19T05:16:22;10.00;99.90
40660;DHT22;26753;45.544;9.232;2023-02-19T05:18:48;9.30;99.90
40660;DHT22;26753;45.544;9.232;2023-02-19T05:21:16;8.40;99.90
40660;DHT22;26753;45.544;9.232;2023-02-19T05:23:55;7.20;99.90
40660;DHT22;26753;45.544;9.232;2023-02-19T05:26:29;5.80;99.90
40660;DHT22;26753;45.544;9.232;2023-02-19T05:28:58;8.20;99.90
40660;DHT22;26753;45.544;9.232;2023-02-19T05:34:51;7.20;99.90
40660;DHT22;26753;45.544;9.232;2023-02-19T05:46:28;9.10;99.90
40660;DHT22;26753;45.544;9.232;2023-02-19T05:49:00;8.30;99.90
40660;DHT22;26753;45.544;9.232;2023-02-19T05:51:26;9.80;99.90
40660;DHT22;26753;45.544;9.232;2023-02-19T05:57:15;9.70;99.90
40660;DHT22;26753;45.544;9.232;2023-02-19T05:59:41;8.60;99.90
40660;DHT22;26753;45.544;9.232;2023-02-19T06:02:22;9.40;99.90
40660;DHT22;26753;45.544;9.232;2023-02-19T06:04:51;12.40;99.90
40660;DHT22;26753;45.544;9.232;2023-02-19T06:07:20;9.40;99.90
40660;DHT22;26753;45.544;9.232;2023-02-19T06:12:11;8.60;99.90
40660;DHT22;26753;45.544;9.232;2023-02-19T06:14:39;9.50;99.90
40660;DHT22;26753;45.544;9.232;2023-02-19T06:17:14;8.50;99.90
40660;DHT22;26753;45.544;9.232;2023-02-19T06:20:06;8.30;99.90
40660;DHT22;26753;45.544;9.232;2023-02-19T06:22:51;10.80;99.90
40660;DHT22;26753;45.544;9.232;2023-02-19T06:40:43;9.40;99.90
40660;DHT22;26753;45.544;9.232;2023-02-19T06:46:09;8.30;99.90
40660;DHT22;26753;45.544;9.232;2023-02-19T06:51:29;10.40;99.90
40660;DHT22;26753;45.544;9.232;2023-02-19T07:00:02;10.00;99.90
40660;DHT22;26753;45.544;9.232;2023-02-19T07:05:08;9.70;99.90
40660;DHT22;26753;45.544;9.232;2023-02-19T07:15:34;9.60;99.90
40660;DHT22;26753;45.544;9.232;2023-02-19T07:18:12;10.20;99.90
40660;DHT22;26753;45.544;9.232;2023-02-19T07:23:20;9.10;99.90
40660;DHT22;26753;45.544;9.232;2023-02-19T07:25:46;8.60;99.90
40660;DHT22;26753;45.544;9.232;2023-02-19T07:28:12;9.50;99.90
40660;DHT22;26753;45.544;9.232;2023-02-19T07:30:40;9.00;99.90
40660;DHT22;26753;45.544;9.232;2023-02-19T07:33:06;10.60;99.90
40660;DHT22;26753;45.544;9.232;2023-02-19T07:35:43;10.50;99.90
40660;DHT22;26753;45.544;9.232;2023-02-19T07:38:15;12.70;99.90
40660;DHT22;26753;45.544;9.232;2023-02-19T07:40:41;9.70;99.90
40660;DHT22;26753;45.544;9.232;2023-02-19T07:43:07;10.80;99.90
40660;DHT22;26753;45.544;9.232;2023-02-19T07:45:42;9.60;99.90
40660;DHT22;26753;45.544;9.232;2023-02-19T07:48:07;10.40;99.90
40660;DHT22;26753;45.544;9.232;2023-02-19T07:50:33;10.50;99.90
40660;DHT22;26753;45.544;9.232;2023-02-19T07:53:05;10.20;99.90
40660;DHT22;26753;45.544;9.232;2023-02-19T07:55:42;10.00;99.90
40660;DHT22;26753;45.544;9.232;2023-02-19T07:58:33;10.30;99.90
40660;DHT22;26753;45.544;9.232;2023-02-19T08:01:05;11.30;99.90
40660;DHT22;26753;45.544;9.232;2023-02-19T08:08:26;11.90;99.90
40660;DHT22;26753;45.544;9.232;2023-02-19T08:10:52;11.30;99.90
40660;DHT22;26753;45.544;9.232;2023-02-19T08:13:36;10.30;99.90
40660;DHT22;26753;45.544;9.232;2023-02-19T08:18:29;9.60;99.90
40660;DHT22;26753;45.544;9.232;2023-02-19T08:20:55;11.60;99.90
40660;DHT22;26753;45.544;9.232;2023-02-19T08:23:21;10.60;99.90
40660;DHT22;26753;45.544;9.232;2023-02-19T08:25:48;10.20;99.90
40660;DHT22;26753;45.544;9.232;2023-02-19T08:28:14;11.40;99.90
40660;DHT22;26753;45.544;9.232;2023-02-19T08:30:40;11.60;99.90
40660;DHT22;26753;45.544;9.232;2023-02-19T08:33:06;10.70;99.90
40660;DHT22;26753;45.544;9.232;2023-02-19T08:35:38;10.80;99.90
40660;DHT22;26753;45.544;9.232;2023-02-19T08:38:04;10.30;99.90
40660;DHT22;26753;45.544;9.232;2023-02-19T08:41:16;11.50;99.90
40660;DHT22;26753;45.544;9.232;2023-02-19T08:43:31;11.20;99.90
40660;DHT22;26753;45.544;9.232;2023-02-19T08:46:39;10.30;99.90
40660;DHT22;26753;45.544;9.232;2023-02-19T08:49:32;10.60;99.90
40660;DHT22;26753;45.544;9.232;2023-02-19T08:52:07;11.10;99.90
40660;DHT22;26753;45.544;9.232;2023-02-19T08:57:01;11.90;99.90
40660;DHT22;26753;45.544;9.232;2023-02-19T08:59:34;11.30;99.90
40660;DHT22;26753;45.544;9.232;2023-02-19T09:02:02;10.60;99.90
40660;DHT22;26753;45.544;9.232;2023-02-19T09:04:28;12.70;99.90
40660;DHT22;26753;45.544;9.232;2023-02-19T09:06:54;11.20;99.90
40660;DHT22;26753;45.544;9.232;2023-02-19T09:09:20;11.10;99.90
40660;DHT22;26753;45.544;9.232;2023-02-19T09:11:57;13.20;99.90
40660;DHT22;26753;45.544;9.232;2023-02-19T09:14:22;11.90;99.90
40660;DHT22;26753;45.544;9.232;2023-02-19T09:16:48;12.20;99.90
40660;DHT22;26753;45.544;9.232;2023-02-19T09:21:41;13.60;99.90
40660;DHT22;26753;45.544;9.232;2023-02-19T09:24:10;13.60;99.90
40660;DHT22;26753;45.544;9.232;2023-02-19T09:26:35;11.90;99.90
40660;DHT22;26753;45.544;9.232;2023-02-19T09:29:04;14.00;99.90
40660;DHT22;26753;45.544;9.232;2023-02-19T09:31:35;12.70;99.90
40660;DHT22;26753;45.544;9.232;2023-02-19T09:34:01;13.70;99.90
40660;DHT22;26753;45.544;9.232;2023-02-19T09:36:27;13.70;99.90
40660;DHT22;26753;45.544;9.232;2023-02-19T09:38:58;14.20;99.90
40660;DHT22;26753;45.544;9.232;2023-02-19T09:41:57;14.90;99.90
40660;DHT22;26753;45.544;9.232;2023-02-19T09:44:26;13.00;99.90
40660;DHT22;26753;45.544;9.232;2023-02-19T09:46:53;13.60;99.90
40660;DHT22;26753;45.544;9.232;2023-02-19T09:49:33;12.70;99.90
40660;DHT22;26753;45.544;9.232;2023-02-19T09:52:23;14.00;99.90
40660;DHT22;26753;45.544;9.232;2023-02-19T09:54:46;14.20;99.90
40660;DHT22;26753;45.544;9.232;2023-02-19T09:57:18;15.40;99.90
40660;DHT22;26753;45.544;9.232;2023-02-19T09:59:46;13.80;99.90
40660;DHT22;26753;45.544;9.232;2023-02-19T10:02:23;13.70;99.90
40660;DHT22;26753;45.544;9.232;2023-02-19T10:04:50;14.50;99.90
40660;DHT22;26753;45.544;9.232;2023-02-19T10:07:20;15.50;99.90
40660;DHT22;26753;45.544;9.232;2023-02-19T10:09:57;14.90;99.90
40660;DHT22;26753;45.544;9.232;2023-02-19T10:15:26;14.90;99.90
40660;DHT22;26753;45.544;9.232;2023-02-19T10:17:57;13.70;99.90
40660;DHT22;26753;45.544;9.232;2023-02-19T10:26:48;14.90;99.90
40660;DHT22;26753;45.544;9.232;2023-02-19T10:29:21;14.20;99.90
40660;DHT22;26753;45.544;9.232;2023-02-19T10:31:55;13.50;99.90
40660;DHT22;26753;45.544;9.232;2023-02-19T10:34:34;14.00;99.90
40660;DHT22;26753;45.544;9.232;2023-02-19T10:37:00;14.60;99.90
40660;DHT22;26753;45.544;9.232;2023-02-19T10:39:37;15.00;99.90
40660;DHT22;26753;45.544;9.232;2023-02-19T10:45:02;16.00;99.90
40660;DHT22;26753;45.544;9.232;2023-02-19T10:47:28;14.70;99.90
40660;DHT22;26753;45.544;9.232;2023-02-19T10:49:56;16.00;99.90
40660;DHT22;26753;45.544;9.232;2023-02-19T10:52:27;14.70;99.90
40660;DHT22;26753;45.544;9.232;2023-02-19T10:55:13;15.40;99.90
40660;DHT22;26753;45.544;9.232;2023-02-19T11:00:33;16.40;99.90
40660;DHT22;26753;45.544;9.232;2023-02-19T11:03:13;16.30;99.90
40660;DHT22;26753;45.544;9.232;2023-02-19T11:05:59;15.40;99.90
40660;DHT22;26753;45.544;9.232;2023-02-19T11:11:23;16.70;99.90
40660;DHT22;26753;45.544;9.232;2023-02-19T11:13:49;16.30;99.90
40660;DHT22;26753;45.544;9.232;2023-02-19T11:16:15;16.20;99.90
40660;DHT22;26753;45.544;9.232;2023-02-19T11:18:40;16.10;99.90
40660;DHT22;26753;45.544;9.232;2023-02-19T11:21:20;16.10;99.90
40660;DHT22;26753;45.544;9.232;2023-02-19T11:24:03;17.00;99.90
40660;DHT22;26753;45.544;9.232;2023-02-19T11:26:35;16.70;99.90
40660;DHT22;26753;45.544;9.232;2023-02-19T11:29:11;16.20;99.90
40660;DHT22;26753;45.544;9.232;2023-02-19T11:31:37;16.90;99.90
40660;DHT22;26753;45.544;9.232;2023-02-19T11:39:39;16.80;99.90
40660;DHT22;26753;45.544;9.232;2023-02-19T11:44:52;17.30;99.90
40660;DHT22;26753;45.544;9.232;2023-02-19T12:04:48;18.00;99.90
40660;DHT22;26753;45.544;9.232;2023-02-19T12:10:05;18.50;99.90
40660;DHT22;26753;45.544;9.232;2023-02-19T12:15:44;19.00;99.90
40660;DHT22;26753;45.544;9.232;2023-02-19T12:18:48;19.00;99.90
40660;DHT22;26753;45.544;9.232;2023-02-19T12:57:03;30.10;81.60
40660;DHT22;26753;45.544;9.232;2023-02-19T12:59:52;30.80;78.00
40660;DHT22;26753;45.544;9.232;2023-02-19T13:02:18;30.70;74.60
40660;DHT22;26753;45.544;9.232;2023-02-19T13:07:28;31.10;72.40
40660;DHT22;26753;45.544;9.232;2023-02-19T13:12:35;32.20;69.50
40660;DHT22;26753;45.544;9.232;2023-02-19T13:15:02;32.90;68.20
40660;DHT22;26753;45.544;9.232;2023-02-19T13:17:58;34.10;66.80
40660;DHT22;26753;45.544;9.232;2023-02-19T13:23:05;35.20;63.90
40660;DHT22;26753;45.544;9.232;2023-02-19T13:36:56;35.70;59.60
40660;DHT22;26753;45.544;9.232;2023-02-19T13:42:56;37.30;58.40
40660;DHT22;26753;45.544;9.232;2023-02-19T13:45:42;37.40;57.30
40660;DHT22;26753;45.544;9.232;2023-02-19T13:59:01;37.80;54.00
40660;DHT22;26753;45.544;9.232;2023-02-19T14:02:22;37.30;53.30
40660;DHT22;26753;45.544;9.232;2023-02-19T14:14:52;38.20;52.60
40660;DHT22;26753;45.544;9.232;2023-02-19T14:22:49;39.80;50.90
40660;DHT22;26753;45.544;9.232;2023-02-19T14:28:24;37.90;51.00
40660;DHT22;26753;45.544;9.232;2023-02-19T14:30:52;39.60;51.30
40660;DHT22;26753;45.544;9.232;2023-02-19T14:33:28;39.40;50.30
40660;DHT22;26753;45.544;9.232;2023-02-19T14:38:45;41.60;49.50
40660;DHT22;26753;45.544;9.232;2023-02-19T14:41:30;39.80;49.10
40660;DHT22;26753;45.544;9.232;2023-02-19T14:44:02;40.00;49.00
40660;DHT22;26753;45.544;9.232;2023-02-19T14:46:31;40.20;49.00
40660;DHT22;26753;45.544;9.232;2023-02-19T14:49:03;40.70;49.30
40660;DHT22;26753;45.544;9.232;2023-02-19T14:51:37;40.50;49.00
40660;DHT22;26753;45.544;9.232;2023-02-19T14:54:13;40.60;48.70
40660;DHT22;26753;45.544;9.232;2023-02-19T14:56:44;40.30;48.90
40660;DHT22;26753;45.544;9.232;2023-02-19T14:59:24;39.80;48.30
40660;DHT22;26753;45.544;9.232;2023-02-19T15:02:11;40.70;48.80
40660;DHT22;26753;45.544;9.232;2023-02-19T15:04:46;39.90;48.20
40660;DHT22;26753;45.544;9.232;2023-02-19T15:07:16;39.90;49.40
40660;DHT22;26753;45.544;9.232;2023-02-19T15:09:45;40.00;49.10
40660;DHT22;26753;45.544;9.232;2023-02-19T15:12:22;37.10;48.80
40660;DHT22;26753;45.544;9.232;2023-02-19T15:14:49;32.40;51.80
40660;DHT22;26753;45.544;9.232;2023-02-19T15:17:38;29.10;55.30
40660;DHT22;26753;45.544;9.232;2023-02-19T15:20:10;27.10;58.40
40660;DHT22;26753;45.544;9.232;2023-02-19T15:22:39;25.20;61.40
40660;DHT22;26753;45.544;9.232;2023-02-19T15:25:05;24.00;64.20
40660;DHT22;26753;45.544;9.232;2023-02-19T15:27:31;23.00;66.40
40660;DHT22;26753;45.544;9.232;2023-02-19T15:29:58;22.40;68.40
40660;DHT22;26753;45.544;9.232;2023-02-19T15:32:25;22.00;69.60
40660;DHT22;26753;45.544;9.232;2023-02-19T15:37:25;21.60;71.80
40660;DHT22;26753;45.544;9.232;2023-02-19T15:39:51;21.30;72.90
40660;DHT22;26753;45.544;9.232;2023-02-19T15:42:24;21.00;74.10
40660;DHT22;26753;45.544;9.232;2023-02-19T15:47:22;20.50;76.40
40660;DHT22;26753;45.544;9.232;2023-02-19T15:49:51;20.40;77.30
40660;DHT22;26753;45.544;9.232;2023-02-19T15:52:25;20.40;78.30
40660;DHT22;26753;45.544;9.232;2023-02-19T15:54:54;20.10;79.50
40660;DHT22;26753;45.544;9.232;2023-02-19T15:57:28;20.00;80.60
40660;DHT22;26753;45.544;9.232;2023-02-19T16:00:10;19.90;81.60
40660;DHT22;26753;45.544;9.232;2023-02-19T16:02:39;19.80;82.90
40660;DHT22;26753;45.544;9.232;2023-02-19T16:05:13;19.70;84.30
40660;DHT22;26753;45.544;9.232;2023-02-19T16:07:42;19.80;84.60
40660;DHT22;26753;45.544;9.232;2023-02-19T16:10:23;19.90;85.60
40660;DHT22;26753;45.544;9.232;2023-02-19T16:12:55;19.80;86.60
40660;DHT22;26753;45.544;9.232;2023-02-19T16:15:25;19.70;88.00
40660;DHT22;26753;45.544;9.232;2023-02-19T16:17:51;19.60;89.10
40660;DHT22;26753;45.544;9.232;2023-02-19T16:20:20;19.30;90.30
40660;DHT22;26753;45.544;9.232;2023-02-19T16:22:47;19.20;91.10
40660;DHT22;26753;45.544;9.232;2023-02-19T16:25:24;19.00;92.00
40660;DHT22;26753;45.544;9.232;2023-02-19T16:27:50;18.80;93.20
40660;DHT22;26753;45.544;9.232;2023-02-19T16:30:22;18.70;94.40
40660;DHT22;26753;45.544;9.232;2023-02-19T16:35:37;18.60;96.50
40660;DHT22;26753;45.544;9.232;2023-02-19T16:38:18;18.40;97.60
40660;DHT22;26753;45.544;9.232;2023-02-19T16:43:26;18.30;99.90
40660;DHT22;26753;45.544;9.232;2023-02-19T16:45:52;18.20;99.90
40660;DHT22;26753;45.544;9.232;2023-02-19T16:48:18;18.20;99.90
40660;DHT22;26753;45.544;9.232;2023-02-19T16:50:45;18.00;99.90
40660;DHT22;26753;45.544;9.232;2023-02-19T16:53:18;18.00;99.90
40660;DHT22;26753;45.544;9.232;2023-02-19T16:55:44;18.00;99.90
40660;DHT22;26753;45.544;9.232;2023-02-19T16:58:10;17.90;99.90
40660;DHT22;26753;45.544;9.232;2023-02-19T17:00:35;17.80;99.90
40660;DHT22;26753;45.544;9.232;2023-02-19T17:03:06;17.80;99.90
40660;DHT22;26753;45.544;9.232;2023-02-19T17:05:33;18.00;99.90
40660;DHT22;26753;45.544;9.232;2023-02-19T17:07:59;18.00;99.90
40660;DHT22;26753;45.544;9.232;2023-02-19T17:10:28;18.10;99.90
40660;DHT22;26753;45.544;9.232;2023-02-19T17:12:54;18.10;99.90
40660;DHT22;26753;45.544;9.232;2023-02-19T17:15:20;18.10;99.90
40660;DHT22;26753;45.544;9.232;2023-02-19T17:17:46;18.00;99.90
40660;DHT22;26753;45.544;9.232;2023-02-19T17:22:40;17.70;99.90
40660;DHT22;26753;45.544;9.232;2023-02-19T17:25:06;17.60;99.90
40660;DHT22;26753;45.544;9.232;2023-02-19T17:27:32;17.50;99.90
40660;DHT22;26753;45.544;9.232;2023-02-19T17:29:58;17.30;99.90
40660;DHT22;26753;45.544;9.232;2023-02-19T17:32:23;17.30;99.90
40660;DHT22;26753;45.544;9.232;2023-02-19T17:34:49;17.20;99.90
40660;DHT22;26753;45.544;9.232;2023-02-19T17:37:15;17.10;99.90
40660;DHT22;26753;45.544;9.232;2023-02-19T17:39:51;17.30;99.90
40660;DHT22;26753;45.544;9.232;2023-02-19T17:42:17;17.40;99.90
40660;DHT22;26753;45.544;9.232;2023-02-19T17:44:43;17.40;99.90
40660;DHT22;26753;45.544;9.232;2023-02-19T17:47:10;17.40;99.90
40660;DHT22;26753;45.544;9.232;2023-02-19T17:49:35;17.30;99.90
40660;DHT22;26753;45.544;9.232;2023-02-19T17:52:01;17.10;99.90
40660;DHT22;26753;45.544;9.232;2023-02-19T17:54:27;17.10;99.90
40660;DHT22;26753;45.544;9.232;2023-02-19T17:56:53;17.20;99.90
40660;DHT22;26753;45.544;9.232;2023-02-19T17:59:18;17.30;99.90
40660;DHT22;26753;45.544;9.232;2023-02-19T18:01:44;17.20;99.90
40660;DHT22;26753;45.544;9.232;2023-02-19T18:04:10;17.20;99.90
40660;DHT22;26753;45.544;9.232;2023-02-19T18:06:36;17.10;99.90
40660;DHT22;26753;45.544;9.232;2023-02-19T18:09:01;17.00;99.90
40660;DHT22;26753;45.544;9.232;2023-02-19T18:11:36;17.00;99.90
40660;DHT22;26753;45.544;9.232;2023-02-19T18:14:01;16.90;99.90
40660;DHT22;26753;45.544;9.232;2023-02-19T18:16:27;16.60;99.90
40660;DHT22;26753;45.544;9.232;2023-02-19T18:18:53;16.70;99.90
40660;DHT22;26753;45.544;9.232;2023-02-19T18:21:22;16.70;99.90
40660;DHT22;26753;45.544;9.232;2023-02-19T18:23:48;16.60;99.90
40660;DHT22;26753;45.544;9.232;2023-02-19T18:26:17;16.70;99.90
40660;DHT22;26753;45.544;9.232;2023-02-19T18:28:43;16.70;99.90
40660;DHT22;26753;45.544;9.232;2023-02-19T18:31:09;16.70;99.90
40660;DHT22;26753;45.544;9.232;2023-02-19T18:33:34;16.60;99.90
40660;DHT22;26753;45.544;9.232;2023-02-19T18:36:00;16.60;99.90
40660;DHT22;26753;45.544;9.232;2023-02-19T18:38:26;16.60;99.90
40660;DHT22;26753;45.544;9.232;2023-02-19T18:40:51;16.60;99.90
40660;DHT22;26753;45.544;9.232;2023-02-19T18:43:19;16.50;99.90
40660;DHT22;26753;45.544;9.232;2023-02-19T18:45:45;16.50;99.90
40660;DHT22;26753;45.544;9.232;2023-02-19T18:48:11;16.40;99.90
40660;DHT22;26753;45.544;9.232;2023-02-19T18:50:36;16.30;99.90
40660;DHT22;26753;45.544;9.232;2023-02-19T18:53:02;16.00;99.90
40660;DHT22;26753;45.544;9.232;2023-02-19T18:55:27;16.10;99.90
40660;DHT22;26753;45.544;9.232;2023-02-19T18:57:56;16.10;99.90
40660;DHT22;26753;45.544;9.232;2023-02-19T19:00:22;16.10;99.90
40660;DHT22;26753;45.544;9.232;2023-02-19T19:02:55;16.10;99.90
40660;DHT22;26753;45.544;9.232;2023-02-19T19:05:24;16.20;99.90
40660;DHT22;26753;45.544;9.232;2023-02-19T19:07:53;16.20;99.90
40660;DHT22;26753;45.544;9.232;2023-02-19T19:10:31;16.10;99.90
40660;DHT22;26753;45.544;9.232;2023-02-19T19:13:04;16.10;99.90
40660;DHT22;26753;45.544;9.232;2023-02-19T19:15:35;16.00;99.90
40660;DHT22;26753;45.544;9.232;2023-02-19T19:18:01;15.90;99.90
40660;DHT22;26753;45.544;9.232;2023-02-19T19:20:27;15.90;99.90
40660;DHT22;26753;45.544;9.232;2023-02-19T19:22:54;15.90;99.90
40660;DHT22;26753;45.544;9.232;2023-02-19T19:25:20;15.90;99.90
40660;DHT22;26753;45.544;9.232;2023-02-19T19:27:47;15.80;99.90
40660;DHT22;26753;45.544;9.232;2023-02-19T19:30:15;15.70;99.90
40660;DHT22;26753;45.544;9.232;2023-02-19T19:32:41;15.70;99.90
40660;DHT22;26753;45.544;9.232;2023-02-19T19:35:06;15.70;99.90
40660;DHT22;26753;45.544;9.232;2023-02-19T19:37:32;15.60;99.90
40660;DHT22;26753;45.544;9.232;2023-02-19T19:40:01;15.60;99.90
40660;DHT22;26753;45.544;9.232;2023-02-19T19:42:40;15.50;99.90
40660;DHT22;26753;45.544;9.232;2023-02-19T19:45:06;15.50;99.90
40660;DHT22;26753;45.544;9.232;2023-02-19T19:47:34;15.60;99.90
40660;DHT22;26753;45.544;9.232;2023-02-19T19:50:00;15.50;99.90
40660;DHT22;26753;45.544;9.232;2023-02-19T19:52:30;15.50;99.90
40660;DHT22;26753;45.544;9.232;2023-02-19T19:55:06;15.40;99.90
40660;DHT22;26753;45.544;9.232;2023-02-19T19:57:32;15.30;99.90
40660;DHT22;26753;45.544;9.232;2023-02-19T19:59:58;15.30;99.90
40660;DHT22;26753;45.544;9.232;2023-02-19T20:02:24;15.30;99.90
40660;DHT22;26753;45.544;9.232;2023-02-19T20:04:49;15.20;99.90
40660;DHT22;26753;45.544;9.232;2023-02-19T20:07:22;15.20;99.90
40660;DHT22;26753;45.544;9.232;2023-02-19T20:09:56;15.20;99.90
40660;DHT22;26753;45.544;9.232;2023-02-19T20:12:22;15.10;99.90
40660;DHT22;26753;45.544;9.232;2023-02-19T20:14:48;15.10;99.90
40660;DHT22;26753;45.544;9.232;2023-02-19T20:17:13;15.10;99.90
40660;DHT22;26753;45.544;9.232;2023-02-19T20:19:39;14.90;99.90
40660;DHT22;26753;45.544;9.232;2023-02-19T20:22:05;14.50;99.90
40660;DHT22;26753;45.544;9.232;2023-02-19T20:24:30;14.80;99.90
40660;DHT22;26753;45.544;9.232;2023-02-19T20:26:57;14.80;99.90
40660;DHT22;26753;45.544;9.232;2023-02-19T20:29:24;14.70;99.90
40660;DHT22;26753;45.544;9.232;2023-02-19T20:31:50;14.80;99.90
40660;DHT22;26753;45.544;9.232;2023-02-19T20:34:16;14.70;99.90
40660;DHT22;26753;45.544;9.232;2023-02-19T20:36:43;14.60;99.90
40660;DHT22;26753;45.544;9.232;2023-02-19T20:41:54;14.60;99.90
40660;DHT22;26753;45.544;9.232;2023-02-19T20:44:20;14.50;99.90
40660;DHT22;26753;45.544;9.232;2023-02-19T20:46:47;14.50;99.90
40660;DHT22;26753;45.544;9.232;2023-02-19T20:49:14;14.40;99.90
40660;DHT22;26753;45.544;9.232;2023-02-19T20:51:43;14.20;99.90
40660;DHT22;26753;45.544;9.232;2023-02-19T20:54:19;12.90;99.90
40660;DHT22;26753;45.544;9.232;2023-02-19T20:56:45;14.20;99.90
40660;DHT22;26753;45.544;9.232;2023-02-19T20:59:14;14.20;99.90
40660;DHT22;26753;45.544;9.232;2023-02-19T21:01:43;14.10;99.90
40660;DHT22;26753;45.544;9.232;2023-02-19T21:04:09;14.10;99.90
40660;DHT22;26753;45.544;9.232;2023-02-19T21:06:35;14.10;99.90
40660;DHT22;26753;45.544;9.232;2023-02-19T21:09:01;14.10;99.90
40660;DHT22;26753;45.544;9.232;2023-02-19T21:11:27;14.20;99.90
40660;DHT22;26753;45.544;9.232;2023-02-19T21:13:53;14.10;99.90
40660;DHT22;26753;45.544;9.232;2023-02-19T21:16:21;14.20;99.90
40660;DHT22;26753;45.544;9.232;2023-02-19T21:18:46;14.00;99.90
40660;DHT22;26753;45.544;9.232;2023-02-19T21:21:15;13.90;99.90
40660;DHT22;26753;45.544;9.232;2023-02-19T21:23:45;14.00;99.90
40660;DHT22;26753;45.544;9.232;2023-02-19T21:26:11;13.80;99.90
40660;DHT22;26753;45.544;9.232;2023-02-19T21:28:37;13.80;99.90
40660;DHT22;26753;45.544;9.232;2023-02-19T21:31:04;13.70;99.90
40660;DHT22;26753;45.544;9.232;2023-02-19T21:33:33;14.60;99.90
40660;DHT22;26753;45.544;9.232;2023-02-19T21:36:05;13.10;99.90
40660;DHT22;26753;45.544;9.232;2023-02-19T21:38:33;13.20;99.90
40660;DHT22;26753;45.544;9.232;2023-02-19T21:41:01;14.50;99.90
40660;DHT22;26753;45.544;9.232;2023-02-19T21:43:27;13.80;99.90
40660;DHT22;26753;45.544;9.232;2023-02-19T21:45:53;12.50;99.90